Aeroporto :
LOGIN :

Iscrizione | Disclaimer

   EN    FR    IT 

 










Sommario :    VFR   VFR Marginale   IFR   IFR Intensivo   IFR Molto Intensivo
Visibilità : 
Base nubi : 
>= 8 km
>= 3000ft
5 / 8 km
1000 / 3000 ft
1500m / 5 km
500 / 1000 ft
800 / 1500m
200 / 500 ft
< 800m
< 200 ft
Simboli :   Temporali  Nebbia  Neve Forte  Precipitazioni Forti  Vento > 20 kt
SIGMETs :   Varie  Temporali  Ghiacco  Turbolenza  Onda orograficha  Ceneri Vulcaniche






- Altitudine del aeroporto : 726 ft
- Codice IATA : DIJ


LFSD - Dijon

ULTIMO METAR :
  • 171200Z AUTO 27009KT 230V330 9999 SCT038/// BKN047/// ///TCU 11/04 Q1013

METARs OBSOLETI :
  • 171130Z AUTO 31010KT 270V340 9999 FEW033/// SCT042/// BKN052/// //////CB 10/03 Q1014
  • 171100Z AUTO 28010KT 9999 FEW027/// BKN045/// BKN064/// //////CB 10/05 Q1014
  • 171030Z AUTO 30009KT 260V350 9999 -RA BKN026/// BKN036/// BKN060/// ///CB 08/04 Q1014
  • 171000Z AUTO 31008KT 270V340 9999 FEW020/// BKN052/// BKN062/// ///TCU 09/06 Q1014
  • 170930Z AUTO 31011KT 9999 SCT020 BKN033 BKN046 08/05 Q1015
  • 170900Z AUTO 31010KT 9999 FEW016/// BKN044/// OVC052/// ///TCU 07/05 Q1015
  • 170830Z AUTO 34008KT 310V010 9999 -RA SCT016 BKN023 BKN029 07/05 Q1015
  • 170800Z AUTO 31009KT 9999 FEW017 SCT029 BKN047 08/05 Q1014

Previsioni scadute.



MetMap, La meteo Aeronautica in un colpo d'occhio ! - Copyright ORBIFLY Dicembre 2007 - Disclaimer

ORBIFLY MET'MAP TEAM :

Programmazione e sviluppo : Alexandra Zaïnal
Concezione : Baudouin d'Aumeries
Supporto tecnico e logistico : Manuel Goepfert
Aiuto : Marc-Olivier Méhu
Aiuto per la traduzione : Arnaldo La Scala




FONTI E CREDITI :

   NOAA